Time;durP1;ratioP1;P1;durP2;ratioP2;P2;SDS_P1;SDS_P2;PMS_P1;PMS_P2;Temp;Humidity;BMP_temperature;BMP_pressure;BME280_temperature;BME280_humidity;BME280_pressure;Samples;Min_cycle;Max_cycle;Signal;HPM_P1;HPM_P2
2022/04/29 00:00:30;;;;;;;4.35;2.70;;;;;;;;;;5070785;28;20036;-68
2022/04/29 00:03:34;;;;;;;6.63;2.90;;;;;;;;;;5070978;28;20441;-69
2022/04/29 00:06:38;;;;;;;7.82;3.03;;;;;;;;;;5070917;28;20036;-68
2022/04/29 00:09:43;;;;;;;3.50;2.90;;;;;;;;;;5071153;28;20048;-69
2022/04/29 00:12:48;;;;;;;5.10;2.55;;;;;;;;;;5070974;28;20044;-68
2022/04/29 00:15:53;;;;;;;5.30;2.53;;;;;;;;;;5070856;28;20374;-68
2022/04/29 00:18:57;;;;;;;4.43;2.90;;;;;;;;;;5071084;28;20032;-69
2022/04/29 00:22:02;;;;;;;3.45;2.53;;;;;;;;;;5058385;28;20493;-68
2022/04/29 00:25:07;;;;;;;5.05;2.83;;;;;;;;;;5070607;28;20041;-69
2022/04/29 00:28:11;;;;;;;6.28;3.20;;;;;;;;;;5071358;28;20032;-69
2022/04/29 00:31:16;;;;;;;9.18;3.10;;;;;;;;;;5069892;28;20041;-68
2022/04/29 00:34:20;;;;;;;6.72;2.97;;;;;;;;;;5070645;28;20037;-68
2022/04/29 00:37:25;;;;;;;8.02;2.95;;;;;;;;;;5069928;28;20041;-68
2022/04/29 00:40:31;;;;;;;8.90;3.00;;;;;;;;;;5070453;28;20032;-68
2022/04/29 00:43:35;;;;;;;9.57;3.50;;;;;;;;;;5070603;28;20044;-68
2022/04/29 00:46:40;;;;;;;5.18;2.72;;;;;;;;;;5069398;28;20374;-68
2022/04/29 00:49:44;;;;;;;7.47;2.90;;;;;;;;;;5069407;28;20044;-68
2022/04/29 00:52:50;;;;;;;5.57;2.95;;;;;;;;;;5070298;28;20036;-68
2022/04/29 00:55:55;;;;;;;7.80;2.90;;;;;;;;;;5069557;28;20437;-68
2022/04/29 00:59:04;;;;;;;6.35;2.85;;;;;;;;;;5069877;28;20049;-68
2022/04/29 01:02:09;;;;;;;4.82;2.65;;;;;;;;;;5069426;28;20053;-68
2022/04/29 01:05:18;;;;;;;8.27;2.88;;;;;;;;;;5057956;28;20076;-68
2022/04/29 01:08:23;;;;;;;5.20;2.40;;;;;;;;;;5071419;28;20052;-68
2022/04/29 01:11:27;;;;;;;4.30;2.88;;;;;;;;;;5073437;28;20032;-68
2022/04/29 01:14:32;;;;;;;10.23;2.90;;;;;;;;;;5073153;28;20044;-68
2022/04/29 01:17:37;;;;;;;8.02;3.10;;;;;;;;;;5073267;28;20309;-68
2022/04/29 01:20:42;;;;;;;6.03;3.35;;;;;;;;;;5073914;28;20041;-69
2022/04/29 01:23:46;;;;;;;5.80;2.67;;;;;;;;;;5072962;28;20045;-67
2022/04/29 01:26:50;;;;;;;4.82;2.88;;;;;;;;;;5073196;28;20040;-67
2022/04/29 01:29:59;;;;;;;4.90;2.75;;;;;;;;;;5073082;28;20040;-69
2022/04/29 01:33:05;;;;;;;5.43;2.97;;;;;;;;;;5073163;28;20048;-67
2022/04/29 01:36:10;;;;;;;5.57;2.90;;;;;;;;;;5072705;28;20032;-67
2022/04/29 01:39:15;;;;;;;6.13;3.15;;;;;;;;;;5061799;28;20040;-70
2022/04/29 01:42:19;;;;;;;6.93;3.08;;;;;;;;;;5072557;28;20045;-70
2022/04/29 01:45:23;;;;;;;4.63;2.85;;;;;;;;;;5072756;28;20045;-70
2022/04/29 01:48:43;;;;;;;3.50;2.58;;;;;;;;;;5072856;28;20049;-70
2022/04/29 01:51:50;;;;;;;9.35;3.38;;;;;;;;;;5072863;28;20033;-69
2022/04/29 01:54:55;;;;;;;5.60;2.67;;;;;;;;;;5073210;28;20036;-69
2022/04/29 01:58:00;;;;;;;3.45;2.80;;;;;;;;;;5072615;28;20489;-69
2022/04/29 02:01:04;;;;;;;7.10;2.85;;;;;;;;;;5072350;28;20048;-68
2022/04/29 02:04:09;;;;;;;5.53;2.85;;;;;;;;;;5072189;28;20040;-69
2022/04/29 02:07:13;;;;;;;7.28;3.00;;;;;;;;;;5072375;28;20045;-69
2022/04/29 02:10:20;;;;;;;4.28;2.95;;;;;;;;;;5072503;28;20040;-69
2022/04/29 02:13:27;;;;;;;5.00;2.88;;;;;;;;;;5072280;28;20045;-69
2022/04/29 02:17:11;;;;;;;3.75;2.95;;;;;;;;;;5072923;28;20032;-70
2022/04/29 02:20:15;;;;;;;5.60;2.92;;;;;;;;;;5071032;28;20476;-69
2022/04/29 02:23:19;;;;;;;4.38;2.83;;;;;;;;;;5072091;28;20370;-70
2022/04/29 02:26:24;;;;;;;4.97;3.10;;;;;;;;;;5072873;28;20033;-69
2022/04/29 02:29:28;;;;;;;4.30;2.90;;;;;;;;;;5071812;28;20278;-69
2022/04/29 02:32:33;;;;;;;3.55;2.80;;;;;;;;;;5072098;28;20036;-69
2022/04/29 02:35:37;;;;;;;3.40;2.70;;;;;;;;;;5072307;28;20378;-69
2022/04/29 02:38:44;;;;;;;3.58;2.75;;;;;;;;;;5071863;28;20041;-69
2022/04/29 02:41:48;;;;;;;7.30;3.28;;;;;;;;;;5072353;28;20052;-69
2022/04/29 02:44:53;;;;;;;5.72;3.40;;;;;;;;;;5071424;28;20037;-69
2022/04/29 02:48:00;;;;;;;11.25;3.15;;;;;;;;;;5071626;28;20036;-70
2022/04/29 02:51:05;;;;;;;6.28;3.20;;;;;;;;;;5071896;28;20496;-69
2022/04/29 02:54:10;;;;;;;7.13;3.17;;;;;;;;;;5071426;28;20037;-69
2022/04/29 02:57:16;;;;;;;5.82;3.53;;;;;;;;;;5071508;28;20044;-69
2022/04/29 03:00:21;;;;;;;5.28;3.08;;;;;;;;;;5059910;28;20032;-69
2022/04/29 03:03:26;;;;;;;9.40;3.28;;;;;;;;;;5071369;28;20524;-69
2022/04/29 03:06:30;;;;;;;7.85;3.85;;;;;;;;;;5070810;28;20357;-70
2022/04/29 03:09:34;;;;;;;10.15;3.72;;;;;;;;;;5071121;28;20060;-69
2022/04/29 03:12:38;;;;;;;5.13;3.15;;;;;;;;;;5072063;28;20044;-70
2022/04/29 03:15:48;;;;;;;6.47;3.25;;;;;;;;;;5070913;28;20473;-69
2022/04/29 03:18:52;;;;;;;5.93;3.22;;;;;;;;;;5072073;28;20040;-70
2022/04/29 03:21:57;;;;;;;4.68;3.00;;;;;;;;;;5072107;28;20052;-69
2022/04/29 03:25:02;;;;;;;5.07;3.60;;;;;;;;;;5070792;28;20040;-69
2022/04/29 03:28:06;;;;;;;4.97;3.13;;;;;;;;;;5071012;28;20477;-69
2022/04/29 03:31:11;;;;;;;8.05;3.20;;;;;;;;;;5070428;28;20036;-69
2022/04/29 03:34:45;;;;;;;6.30;3.30;;;;;;;;;;5071015;28;20036;-69
2022/04/29 03:37:53;;;;;;;13.00;3.63;;;;;;;;;;5059066;28;20033;-69
2022/04/29 03:40:58;;;;;;;4.25;3.30;;;;;;;;;;5070390;28;20098;-69
2022/04/29 03:44:04;;;;;;;5.75;3.45;;;;;;;;;;5071360;28;20393;-69
2022/04/29 03:47:15;;;;;;;4.65;3.05;;;;;;;;;;5070750;28;20040;-69
2022/04/29 03:50:33;;;;;;;6.05;3.28;;;;;;;;;;5070544;28;20381;-69
2022/04/29 03:53:43;;;;;;;9.48;3.75;;;;;;;;;;5070441;28;20770;-69
2022/04/29 03:56:48;;;;;;;5.03;3.10;;;;;;;;;;5070366;28;20036;-69
2022/04/29 03:59:52;;;;;;;5.00;3.30;;;;;;;;;;5069978;28;20040;-69
2022/04/29 04:02:56;;;;;;;6.88;3.78;;;;;;;;;;5070930;28;20041;-69
2022/04/29 04:09:24;;;;;;;9.10;3.42;;;;;;;;;;5070239;28;20052;-69
2022/04/29 04:12:41;;;;;;;10.25;3.15;;;;;;;;;;5070120;28;20040;-69
2022/04/29 04:15:45;;;;;;;6.70;3.30;;;;;;;;;;5070751;28;20055;-70
2022/04/29 04:18:51;;;;;;;10.38;3.53;;;;;;;;;;5070172;28;20366;-70
2022/04/29 04:21:55;;;;;;;8.05;3.35;;;;;;;;;;5069671;28;20056;-69
2022/04/29 04:24:59;;;;;;;11.70;4.00;;;;;;;;;;5069499;28;20033;-69
2022/04/29 04:28:04;;;;;;;6.07;3.83;;;;;;;;;;5069616;28;20052;-69
2022/04/29 04:31:31;;;;;;;6.30;3.40;;;;;;;;;;5069647;28;20045;-69
2022/04/29 04:34:51;;;;;;;8.90;4.03;;;;;;;;;;5058270;28;20044;-69
2022/04/29 04:37:55;;;;;;;6.25;3.60;;;;;;;;;;5069648;28;20032;-69
2022/04/29 04:41:16;;;;;;;5.97;3.70;;;;;;;;;;5069364;28;20044;-69
2022/04/29 04:44:21;;;;;;;5.15;3.90;;;;;;;;;;5073137;28;20044;-69
2022/04/29 04:47:26;;;;;;;4.65;3.50;;;;;;;;;;5073587;28;20036;-69
2022/04/29 04:50:33;;;;;;;10.25;3.67;;;;;;;;;;5074550;28;20029;-69
2022/04/29 04:53:37;;;;;;;7.50;3.88;;;;;;;;;;5074585;28;20044;-69
2022/04/29 04:56:42;;;;;;;9.55;3.55;;;;;;;;;;5073479;28;20036;-69
2022/04/29 04:59:47;;;;;;;7.10;4.07;;;;;;;;;;5061974;28;20036;-69
2022/04/29 05:02:51;;;;;;;8.00;3.92;;;;;;;;;;5073178;28;20045;-70
2022/04/29 05:06:36;;;;;;;7.03;3.63;;;;;;;;;;5070811;28;20041;-69
2022/04/29 05:09:41;;;;;;;5.78;3.38;;;;;;;;;;5073345;28;20056;-70
2022/04/29 05:12:46;;;;;;;7.25;3.35;;;;;;;;;;5073448;28;20044;-69
2022/04/29 05:16:00;;;;;;;5.38;3.42;;;;;;;;;;5073063;28;20409;-70
2022/04/29 05:19:11;;;;;;;6.68;2.80;;;;;;;;;;5062670;28;20036;-69
2022/04/29 05:22:15;;;;;;;8.55;3.28;;;;;;;;;;5073036;28;20048;-69
2022/04/29 05:25:20;;;;;;;5.55;3.00;;;;;;;;;;5072870;28;20045;-69
2022/04/29 05:28:43;;;;;;;8.02;3.47;;;;;;;;;;5073036;28;20037;-69
2022/04/29 05:32:08;;;;;;;7.03;3.30;;;;;;;;;;5073648;28;20469;-69
2022/04/29 05:35:31;;;;;;;10.80;3.10;;;;;;;;;;5073827;28;20139;-69
2022/04/29 05:42:22;;;;;;;13.25;3.75;;;;;;;;;;5072458;28;20045;-69
2022/04/29 05:45:27;;;;;;;6.85;3.20;;;;;;;;;;5073648;28;20074;-70
2022/04/29 05:48:31;;;;;;;8.43;3.38;;;;;;;;;;5072511;28;20037;-69
2022/04/29 05:51:37;;;;;;;5.70;3.45;;;;;;;;;;5061193;28;20032;-69
2022/04/29 05:54:41;;;;;;;4.00;3.15;;;;;;;;;;5072031;28;20032;-70
2022/04/29 05:57:46;;;;;;;7.93;3.15;;;;;;;;;;5072658;28;20469;-70
2022/04/29 06:00:51;;;;;;;7.18;3.10;;;;;;;;;;5072424;28;20377;-70
2022/04/29 06:03:56;;;;;;;6.60;3.40;;;;;;;;;;5061111;28;20052;-70
2022/04/29 06:07:00;;;;;;;4.35;2.97;;;;;;;;;;5072335;28;20037;-69
2022/04/29 06:10:05;;;;;;;10.93;3.50;;;;;;;;;;5072433;28;20036;-70
2022/04/29 06:13:12;;;;;;;9.25;3.63;;;;;;;;;;5060863;28;20035;-69
2022/04/29 06:16:43;;;;;;;12.90;3.37;;;;;;;;;;5072749;28;20037;-71
2022/04/29 06:20:08;;;;;;;10.00;3.47;;;;;;;;;;5072091;28;20043;-70
2022/04/29 06:23:39;;;;;;;8.13;3.22;;;;;;;;;;5072430;28;20052;-71
2022/04/29 06:26:47;;;;;;;15.32;3.42;;;;;;;;;;5061020;28;20041;-68
2022/04/29 06:29:59;;;;;;;4.32;3.00;;;;;;;;;;5071535;28;20040;-70
2022/04/29 06:33:18;;;;;;;11.40;3.80;;;;;;;;;;5071982;28;20278;-69
2022/04/29 06:36:24;;;;;;;7.22;3.00;;;;;;;;;;5071753;28;20055;-69
2022/04/29 06:39:33;;;;;;;6.13;3.42;;;;;;;;;;5071604;28;20044;-69
2022/04/29 06:43:16;;;;;;;12.07;3.72;;;;;;;;;;5072371;28;20401;-68
2022/04/29 06:46:39;;;;;;;8.88;3.30;;;;;;;;;;5072266;28;20389;-68
2022/04/29 06:50:02;;;;;;;4.38;3.00;;;;;;;;;;5072447;28;20036;-70
2022/04/29 06:53:29;;;;;;;18.52;3.90;;;;;;;;;;5071609;28;20365;-67
2022/04/29 06:56:33;;;;;;;6.63;3.35;;;;;;;;;;5070772;28;20535;-68
2022/04/29 06:59:38;;;;;;;9.80;3.50;;;;;;;;;;5071201;28;20028;-69
2022/04/29 07:02:43;;;;;;;5.72;3.58;;;;;;;;;;5071928;28;20048;-67
2022/04/29 07:05:51;;;;;;;6.82;3.70;;;;;;;;;;5070547;28;20040;-68
2022/04/29 07:08:55;;;;;;;9.38;3.40;;;;;;;;;;5071075;28;20052;-68
2022/04/29 07:12:18;;;;;;;11.18;3.53;;;;;;;;;;5072055;28;20036;-67
2022/04/29 07:15:30;;;;;;;10.80;3.55;;;;;;;;;;5070732;28;20416;-65
2022/04/29 07:18:44;;;;;;;16.00;4.53;;;;;;;;;;5071073;28;20376;-66
2022/04/29 07:21:49;;;;;;;4.07;3.00;;;;;;;;;;5070520;28;20048;-66
2022/04/29 07:24:54;;;;;;;6.75;3.50;;;;;;;;;;5070300;28;20040;-67
2022/04/29 07:27:59;;;;;;;6.90;3.10;;;;;;;;;;5059227;28;20036;-66
2022/04/29 07:31:03;;;;;;;8.82;3.58;;;;;;;;;;5070668;28;20036;-67
2022/04/29 07:41:44;;;;;;;5.90;3.58;;;;;;;;;;5071326;28;20045;-67
2022/04/29 07:41:45;;;;;;;10.02;3.90;;;;;;;;;;5070407;28;20036;-67
2022/04/29 07:44:49;;;;;;;8.48;4.05;;;;;;;;;;5058984;28;20131;-68
2022/04/29 07:48:01;;;;;;;11.07;3.90;;;;;;;;;;5070168;28;20378;-67
2022/04/29 07:51:08;;;;;;;11.50;4.00;;;;;;;;;;5070283;28;20048;-67
2022/04/29 07:54:13;;;;;;;13.63;3.70;;;;;;;;;;5070206;28;20401;-69
2022/04/29 07:57:18;;;;;;;9.63;4.18;;;;;;;;;;5070068;28;20047;-67
2022/04/29 08:00:24;;;;;;;9.43;3.90;;;;;;;;;;5070408;28;20048;-68
2022/04/29 08:03:29;;;;;;;5.13;3.22;;;;;;;;;;5058863;28;20044;-67
2022/04/29 08:06:39;;;;;;;8.85;3.80;;;;;;;;;;5070603;28;20040;-68
2022/04/29 08:09:44;;;;;;;8.27;3.25;;;;;;;;;;5070001;28;20385;-67
2022/04/29 08:12:51;;;;;;;9.85;3.30;;;;;;;;;;5070118;28;20044;-67
2022/04/29 08:16:14;;;;;;;8.25;4.30;;;;;;;;;;5070720;28;20044;-68
2022/04/29 08:19:30;;;;;;;6.05;3.58;;;;;;;;;;5069311;28;20029;-68
2022/04/29 08:22:55;;;;;;;8.13;3.60;;;;;;;;;;5069923;28;20044;-68
2022/04/29 08:26:03;;;;;;;7.30;3.83;;;;;;;;;;5069592;28;20029;-68
2022/04/29 08:29:08;;;;;;;4.75;3.65;;;;;;;;;;5069788;28;20041;-69
2022/04/29 08:32:13;;;;;;;6.78;3.10;;;;;;;;;;5069860;28;20069;-68
2022/04/29 08:35:21;;;;;;;10.90;3.20;;;;;;;;;;5069573;28;20048;-68
2022/04/29 08:38:26;;;;;;;7.88;3.22;;;;;;;;;;5069834;28;20039;-68
2022/04/29 08:41:35;;;;;;;17.50;3.50;;;;;;;;;;5069816;28;20377;-68
2022/04/29 08:44:42;;;;;;;6.53;3.10;;;;;;;;;;5069955;28;20056;-69
2022/04/29 08:48:15;;;;;;;6.65;3.65;;;;;;;;;;5069337;28;20377;-68
2022/04/29 08:51:19;;;;;;;5.68;3.15;;;;;;;;;;5070842;28;20045;-68
2022/04/29 09:01:10;;;;;;;8.65;3.38;;;;;;;;;;5070738;28;20040;-68
2022/04/29 09:04:18;;;;;;;6.80;3.42;;;;;;;;;;5070016;28;20044;-67
2022/04/29 09:07:42;;;;;;;6.20;3.80;;;;;;;;;;5070129;28;20057;-67
2022/04/29 09:10:56;;;;;;;5.05;3.40;;;;;;;;;;5070232;28;20036;-67
2022/04/29 09:14:18;;;;;;;15.45;4.47;;;;;;;;;;5069677;28;20040;-67
2022/04/29 09:17:26;;;;;;;17.88;3.72;;;;;;;;;;5069823;28;20051;-67
2022/04/29 09:20:30;;;;;;;9.40;3.35;;;;;;;;;;5070407;28;20052;-67
2022/04/29 09:23:36;;;;;;;6.75;3.60;;;;;;;;;;5070010;28;20390;-67
2022/04/29 09:27:00;;;;;;;8.82;3.75;;;;;;;;;;5069618;28;20032;-69
2022/04/29 09:30:37;;;;;;;4.80;3.35;;;;;;;;;;5072723;28;20062;-67
2022/04/29 09:34:01;;;;;;;4.80;3.28;;;;;;;;;;5073288;28;20441;-68
2022/04/29 09:37:16;;;;;;;9.20;3.58;;;;;;;;;;5072578;28;20127;-69
2022/04/29 09:40:20;;;;;;;12.25;4.35;;;;;;;;;;5073507;28;20461;-68
2022/04/29 09:43:34;;;;;;;4.03;3.28;;;;;;;;;;5073302;28;20048;-68
2022/04/29 09:46:38;;;;;;;9.60;3.38;;;;;;;;;;5073609;28;20472;-67
2022/04/29 09:49:55;;;;;;;28.08;3.60;;;;;;;;;;5073666;28;20041;-68
2022/04/29 09:53:15;;;;;;;7.57;3.55;;;;;;;;;;5073623;28;20044;-68
2022/04/29 09:56:19;;;;;;;5.13;3.47;;;;;;;;;;5073495;28;20477;-67
2022/04/29 09:59:24;;;;;;;5.80;3.25;;;;;;;;;;5073408;28;20037;-67
2022/04/29 10:02:28;;;;;;;7.15;3.60;;;;;;;;;;5073121;28;20040;-67
2022/04/29 10:05:38;;;;;;;6.80;3.25;;;;;;;;;;5072494;28;20366;-68
2022/04/29 10:08:44;;;;;;;11.27;3.72;;;;;;;;;;5071816;28;20044;-67
2022/04/29 10:11:49;;;;;;;4.82;3.25;;;;;;;;;;5072667;28;20396;-67
2022/04/29 10:14:58;;;;;;;8.10;3.80;;;;;;;;;;5072829;28;20036;-69
2022/04/29 10:22:04;;;;;;;;;;;;;;;;;;5070735;28;20044;-69
2022/04/29 10:25:09;;;;;;;7.90;3.17;;;;;;;;;;5069105;28;20605;-68
2022/04/29 10:28:21;;;;;;;5.03;3.20;;;;;;;;;;5072713;28;20029;-68
2022/04/29 10:31:29;;;;;;;10.00;3.45;;;;;;;;;;5072365;28;20040;-67
2022/04/29 10:34:34;;;;;;;10.10;3.25;;;;;;;;;;5072057;28;20047;-69
2022/04/29 10:37:41;;;;;;;6.28;3.63;;;;;;;;;;5071309;28;20039;-69
2022/04/29 10:40:48;;;;;;;6.30;3.15;;;;;;;;;;5071224;28;20048;-67
2022/04/29 10:43:52;;;;;;;6.78;2.97;;;;;;;;;;5059923;28;20394;-67
2022/04/29 10:47:03;;;;;;;6.32;2.58;;;;;;;;;;5072364;28;20032;-69
2022/04/29 10:50:32;;;;;;;4.93;2.72;;;;;;;;;;5071798;28;20040;-70
2022/04/29 10:53:56;;;;;;;5.85;3.00;;;;;;;;;;5072141;28;20040;-69
2022/04/29 10:57:19;;;;;;;7.20;2.67;;;;;;;;;;5072054;28;20485;-68
2022/04/29 11:00:24;;;;;;;7.05;2.65;;;;;;;;;;5071595;28;20044;-69
2022/04/29 11:03:41;;;;;;;8.13;2.70;;;;;;;;;;5071033;28;20048;-69
2022/04/29 11:06:47;;;;;;;5.53;2.67;;;;;;;;;;5071747;28;20476;-69
2022/04/29 11:09:51;;;;;;;6.32;3.10;;;;;;;;;;5071997;28;20049;-67
2022/04/29 11:13:00;;;;;;;5.55;2.50;;;;;;;;;;5071636;28;20037;-68
2022/04/29 11:16:47;;;;;;;4.15;2.80;;;;;;;;;;5071669;28;20032;-69
2022/04/29 11:20:12;;;;;;;6.80;3.00;;;;;;;;;;5071592;28;20028;-67
2022/04/29 11:26:49;;;;;;;8.65;3.40;;;;;;;;;;5071840;28;20041;-67
2022/04/29 11:30:01;;;;;;;5.45;2.60;;;;;;;;;;5070419;28;20045;-68
2022/04/29 11:33:24;;;;;;;12.05;2.92;;;;;;;;;;5071814;28;20036;-69
2022/04/29 11:36:28;;;;;;;7.20;2.97;;;;;;;;;;5071349;28;20055;-69
2022/04/29 11:39:35;;;;;;;6.35;2.97;;;;;;;;;;5071254;28;20037;-66
2022/04/29 11:42:49;;;;;;;9.38;2.90;;;;;;;;;;5070509;28;20044;-68
2022/04/29 11:46:09;;;;;;;5.43;2.67;;;;;;;;;;5071007;28;20037;-69
2022/04/29 11:49:28;;;;;;;6.45;2.80;;;;;;;;;;5070646;28;20044;-67
2022/04/29 11:52:33;;;;;;;8.73;2.90;;;;;;;;;;5071084;28;20040;-68
2022/04/29 11:55:38;;;;;;;11.13;2.85;;;;;;;;;;5071364;28;20040;-67
2022/04/29 11:58:42;;;;;;;10.63;2.40;;;;;;;;;;5071104;28;20048;-68
2022/04/29 12:01:46;;;;;;;6.45;2.47;;;;;;;;;;5071276;28;20043;-68
2022/04/29 12:04:58;;;;;;;6.20;2.55;;;;;;;;;;5070764;28;20040;-67
2022/04/29 12:08:03;;;;;;;5.13;2.75;;;;;;;;;;5070782;28;20041;-68
2022/04/29 12:11:24;;;;;;;10.57;2.40;;;;;;;;;;5071417;28;20480;-69
2022/04/29 12:14:29;;;;;;;5.75;2.42;;;;;;;;;;5071028;28;20048;-68
2022/04/29 12:17:34;;;;;;;11.52;2.63;;;;;;;;;;5070950;28;20037;-68
2022/04/29 12:20:39;;;;;;;4.07;2.55;;;;;;;;;;5070713;28;20047;-67
2022/04/29 12:23:43;;;;;;;6.47;2.70;;;;;;;;;;5070447;28;20049;-69
2022/04/29 12:27:04;;;;;;;5.20;2.38;;;;;;;;;;5070924;28;20040;-70
2022/04/29 12:37:15;;;;;;;7.72;2.53;;;;;;;;;;5070903;28;20048;-69
2022/04/29 12:40:30;;;;;;;10.48;2.30;;;;;;;;;;5069695;28;20473;-68
2022/04/29 12:43:41;;;;;;;6.75;2.50;;;;;;;;;;5070435;28;20055;-67
2022/04/29 12:46:45;;;;;;;16.35;2.90;;;;;;;;;;5070478;28;20370;-68
2022/04/29 12:49:50;;;;;;;10.77;2.78;;;;;;;;;;5070877;28;20055;-66
2022/04/29 12:52:54;;;;;;;8.95;2.60;;;;;;;;;;5070784;28;20063;-69
2022/04/29 12:55:59;;;;;;;5.60;2.50;;;;;;;;;;5070450;28;20041;-68
2022/04/29 12:59:09;;;;;;;12.68;2.60;;;;;;;;;;5070031;28;20040;-68
2022/04/29 13:02:18;;;;;;;10.90;2.53;;;;;;;;;;5070494;28;20055;-68
2022/04/29 13:05:22;;;;;;;5.25;2.30;;;;;;;;;;5072718;28;20067;-67
2022/04/29 13:08:28;;;;;;;5.22;2.42;;;;;;;;;;5074155;28;20064;-68
2022/04/29 13:11:32;;;;;;;8.27;3.00;;;;;;;;;;5074114;28;20045;-66
2022/04/29 13:14:40;;;;;;;13.65;3.33;;;;;;;;;;5073385;28;20469;-66
2022/04/29 13:17:45;;;;;;;10.20;2.70;;;;;;;;;;5073549;28;20043;-66
2022/04/29 13:20:49;;;;;;;7.95;2.60;;;;;;;;;;5073176;28;20048;-68
2022/04/29 13:23:58;;;;;;;8.23;2.42;;;;;;;;;;5072831;28;20048;-67
2022/04/29 13:27:15;;;;;;;8.82;2.53;;;;;;;;;;5061627;28;20481;-69
2022/04/29 13:30:20;;;;;;;3.53;2.25;;;;;;;;;;5073916;28;20036;-66
2022/04/29 13:33:24;;;;;;;5.40;2.63;;;;;;;;;;5073776;28;20037;-66
2022/04/29 13:36:28;;;;;;;9.02;3.10;;;;;;;;;;5073632;28;20040;-68
2022/04/29 13:39:33;;;;;;;4.40;2.75;;;;;;;;;;5073976;28;20041;-68
2022/04/29 13:42:54;;;;;;;3.42;2.03;;;;;;;;;;5072757;28;20040;-70
2022/04/29 13:45:59;;;;;;;7.63;2.53;;;;;;;;;;5072735;28;20044;-68
2022/04/29 13:49:03;;;;;;;5.95;2.40;;;;;;;;;;5072670;28;20036;-67
2022/04/29 13:55:30;;;;;;;6.38;2.40;;;;;;;;;;5073482;28;20366;-69
2022/04/29 13:58:35;;;;;;;11.25;2.70;;;;;;;;;;5073252;28;20041;-67
2022/04/29 14:01:40;;;;;;;8.93;2.70;;;;;;;;;;5073624;28;20043;-68
2022/04/29 14:04:44;;;;;;;8.85;2.70;;;;;;;;;;5072805;28;20092;-67
2022/04/29 14:07:49;;;;;;;7.68;2.30;;;;;;;;;;5073001;28;20049;-68
2022/04/29 14:10:54;;;;;;;6.35;3.15;;;;;;;;;;5073463;28;20366;-68
2022/04/29 14:13:58;;;;;;;3.75;2.40;;;;;;;;;;5073248;28;20060;-69
2022/04/29 14:17:03;;;;;;;4.05;2.38;;;;;;;;;;5073338;28;20041;-69
2022/04/29 14:20:08;;;;;;;3.92;2.90;;;;;;;;;;5073179;28;20060;-68
2022/04/29 14:23:12;;;;;;;6.10;2.30;;;;;;;;;;5072774;28;20045;-69
2022/04/29 14:26:16;;;;;;;6.85;2.28;;;;;;;;;;5072829;28;20040;-68
2022/04/29 14:29:20;;;;;;;5.80;2.50;;;;;;;;;;5072441;28;20385;-68
2022/04/29 14:32:25;;;;;;;9.52;2.40;;;;;;;;;;5072744;28;20048;-69
2022/04/29 14:35:29;;;;;;;4.53;2.40;;;;;;;;;;5071656;28;20037;-70
2022/04/29 14:38:34;;;;;;;6.60;2.30;;;;;;;;;;5072801;28;20041;-69
2022/04/29 14:41:38;;;;;;;5.38;2.45;;;;;;;;;;5072825;28;20040;-69
2022/04/29 14:44:42;;;;;;;5.50;2.60;;;;;;;;;;5072024;28;20048;-69
2022/04/29 14:47:47;;;;;;;5.50;2.83;;;;;;;;;;5072502;28;20402;-67
2022/04/29 14:50:53;;;;;;;4.35;2.45;;;;;;;;;;5072314;28;20049;-68
2022/04/29 14:53:58;;;;;;;5.72;2.30;;;;;;;;;;5072451;28;20328;-68
2022/04/29 14:57:02;;;;;;;5.88;3.00;;;;;;;;;;5072160;28;20036;-67
2022/04/29 15:00:07;;;;;;;4.72;2.72;;;;;;;;;;5072042;28;20041;-66
2022/04/29 15:03:11;;;;;;;7.47;2.53;;;;;;;;;;5072170;28;20049;-67
2022/04/29 15:06:17;;;;;;;7.53;2.60;;;;;;;;;;5070684;28;20032;-69
2022/04/29 15:16:07;;;;;;;4.22;2.28;;;;;;;;;;5071681;28;20374;-67
2022/04/29 15:19:11;;;;;;;13.07;3.03;;;;;;;;;;5059036;28;20036;-67
2022/04/29 15:22:16;;;;;;;5.05;2.45;;;;;;;;;;5071503;28;20425;-66
2022/04/29 15:25:20;;;;;;;4.30;2.50;;;;;;;;;;5071442;28;20037;-71
2022/04/29 15:28:26;;;;;;;4.85;2.42;;;;;;;;;;5070928;28;20048;-68
2022/04/29 15:31:30;;;;;;;5.35;2.40;;;;;;;;;;5071508;28;20040;-68
2022/04/29 15:34:35;;;;;;;13.35;2.95;;;;;;;;;;5071561;28;20048;-69
2022/04/29 15:37:39;;;;;;;4.65;2.58;;;;;;;;;;5071452;28;20043;-68
2022/04/29 15:40:47;;;;;;;9.90;2.78;;;;;;;;;;5071289;28;20037;-70
2022/04/29 15:43:51;;;;;;;4.50;2.40;;;;;;;;;;5071080;28;20049;-68
2022/04/29 15:46:56;;;;;;;3.15;2.28;;;;;;;;;;5071025;28;20044;-69
2022/04/29 15:50:00;;;;;;;5.10;2.35;;;;;;;;;;5071177;28;20036;-69
2022/04/29 15:53:05;;;;;;;5.10;2.55;;;;;;;;;;5070312;28;20040;-70
2022/04/29 15:56:12;;;;;;;11.77;2.70;;;;;;;;;;5070741;28;20048;-68
2022/04/29 15:59:16;;;;;;;6.97;2.70;;;;;;;;;;5070918;28;20047;-68
2022/04/29 16:02:21;;;;;;;6.53;2.80;;;;;;;;;;5070741;28;20041;-67
2022/04/29 16:05:25;;;;;;;5.75;2.90;;;;;;;;;;5070964;28;20044;-69
2022/04/29 16:08:29;;;;;;;8.07;2.83;;;;;;;;;;5070488;28;20048;-68
2022/04/29 16:11:34;;;;;;;4.68;2.25;;;;;;;;;;5070344;28;20040;-69
2022/04/29 16:14:38;;;;;;;4.25;2.42;;;;;;;;;;5070593;28;20036;-70
2022/04/29 16:21:09;;;;;;;8.30;2.58;;;;;;;;;;5070785;28;20045;-67
2022/04/29 16:27:36;;;;;;;5.80;2.90;;;;;;;;;;5070730;28;20183;-67
2022/04/29 16:30:44;;;;;;;4.95;3.22;;;;;;;;;;5070368;28;20036;-68
2022/04/29 16:33:51;;;;;;;5.47;2.85;;;;;;;;;;5070960;28;20362;-68
2022/04/29 16:36:55;;;;;;;9.05;3.05;;;;;;;;;;5070490;28;20044;-68
2022/04/29 16:39:59;;;;;;;6.43;2.50;;;;;;;;;;5069571;28;20604;-68
2022/04/29 16:43:07;;;;;;;5.88;3.25;;;;;;;;;;5070480;28;20053;-68
2022/04/29 16:46:11;;;;;;;5.57;3.03;;;;;;;;;;5070723;28;20044;-68
2022/04/29 16:49:16;;;;;;;7.15;3.17;;;;;;;;;;5070585;28;20052;-67
2022/04/29 16:52:20;;;;;;;6.68;2.85;;;;;;;;;;5070680;28;20040;-67
2022/04/29 16:55:25;;;;;;;7.15;2.67;;;;;;;;;;5069935;28;20029;-67
2022/04/29 16:58:42;;;;;;;5.55;2.80;;;;;;;;;;5070254;28;20037;-68
2022/04/29 17:01:47;;;;;;;11.25;2.70;;;;;;;;;;5070086;28;20040;-67
2022/04/29 17:04:52;;;;;;;6.68;3.03;;;;;;;;;;5069834;28;20055;-66
2022/04/29 17:07:56;;;;;;;5.85;3.00;;;;;;;;;;5070061;28;20036;-66
2022/04/29 17:11:01;;;;;;;5.30;2.88;;;;;;;;;;5070387;28;20037;-66
2022/04/29 17:14:05;;;;;;;11.90;3.03;;;;;;;;;;5070164;28;20048;-69
2022/04/29 17:17:09;;;;;;;7.82;2.88;;;;;;;;;;5068777;28;20119;-70
2022/04/29 17:20:14;;;;;;;4.63;3.10;;;;;;;;;;5070501;28;20032;-67
2022/04/29 17:23:18;;;;;;;6.07;3.03;;;;;;;;;;5070128;28;20048;-68
2022/04/29 17:26:23;;;;;;;4.75;3.03;;;;;;;;;;5069877;28;20066;-68
2022/04/29 17:29:27;;;;;;;5.70;2.60;;;;;;;;;;5069153;28;20036;-69
2022/04/29 17:32:31;;;;;;;9.40;3.03;;;;;;;;;;5069357;28;20378;-69
2022/04/29 17:35:35;;;;;;;6.07;2.88;;;;;;;;;;5069903;28;20032;-69
2022/04/29 17:38:40;;;;;;;4.35;2.95;;;;;;;;;;5069118;28;20041;-69
2022/04/29 17:45:07;;;;;;;24.10;3.10;;;;;;;;;;5069140;28;20052;-69
2022/04/29 17:48:12;;;;;;;5.50;2.63;;;;;;;;;;5069797;28;20047;-70
2022/04/29 17:51:16;;;;;;;4.07;3.30;;;;;;;;;;5072217;28;20484;-68
2022/04/29 17:54:20;;;;;;;5.35;3.20;;;;;;;;;;5073283;28;20044;-69
2022/04/29 17:57:25;;;;;;;13.85;3.38;;;;;;;;;;5073118;28;20040;-68
2022/04/29 18:00:30;;;;;;;6.70;3.35;;;;;;;;;;5073279;28;20574;-68
2022/04/29 18:03:35;;;;;;;4.97;3.25;;;;;;;;;;5073126;28;20056;-68
2022/04/29 18:06:39;;;;;;;11.55;3.67;;;;;;;;;;5072336;28;20040;-69
2022/04/29 18:09:43;;;;;;;4.30;2.75;;;;;;;;;;5072476;28;20122;-69
2022/04/29 18:12:47;;;;;;;4.88;2.70;;;;;;;;;;5072963;28;20036;-69
2022/04/29 18:15:52;;;;;;;4.47;3.03;;;;;;;;;;5072767;28;20032;-68
2022/04/29 18:18:56;;;;;;;5.60;3.10;;;;;;;;;;5073198;28;20378;-69
2022/04/29 18:22:01;;;;;;;5.65;2.90;;;;;;;;;;5073228;28;20040;-69
2022/04/29 18:25:05;;;;;;;5.90;3.50;;;;;;;;;;5072736;28;20046;-69
2022/04/29 18:28:11;;;;;;;5.78;3.30;;;;;;;;;;5074325;28;20306;-69
2022/04/29 18:31:16;;;;;;;7.20;3.30;;;;;;;;;;5073137;28;20044;-69
2022/04/29 18:34:21;;;;;;;8.82;3.30;;;;;;;;;;5073174;28;20481;-69
2022/04/29 18:37:26;;;;;;;7.32;4.03;;;;;;;;;;5072896;28;20044;-69
2022/04/29 18:40:30;;;;;;;8.63;3.63;;;;;;;;;;5072901;28;20041;-69
2022/04/29 18:43:35;;;;;;;5.90;3.47;;;;;;;;;;5072197;28;20413;-69
2022/04/29 18:46:39;;;;;;;9.75;3.55;;;;;;;;;;5072411;28;20032;-69
2022/04/29 18:49:43;;;;;;;11.02;3.47;;;;;;;;;;5072356;28;20496;-69
2022/04/29 18:52:48;;;;;;;8.60;3.53;;;;;;;;;;5072388;28;20063;-69
2022/04/29 18:55:53;;;;;;;7.13;3.30;;;;;;;;;;5072236;28;20040;-68
2022/04/29 18:58:58;;;;;;;6.25;3.15;;;;;;;;;;5072347;28;20044;-68
2022/04/29 19:02:02;;;;;;;6.32;3.17;;;;;;;;;;5071549;28;20484;-69
2022/04/29 19:05:07;;;;;;;8.68;3.40;;;;;;;;;;5072020;28;20064;-68
2022/04/29 19:08:15;;;;;;;7.82;3.22;;;;;;;;;;5071796;28;20509;-69
2022/04/29 19:11:20;;;;;;;5.40;2.92;;;;;;;;;;5071929;28;20040;-69
2022/04/29 19:14:25;;;;;;;5.07;3.15;;;;;;;;;;5070937;28;20040;-69
2022/04/29 19:17:29;;;;;;;5.50;3.20;;;;;;;;;;5071429;28;20041;-69
2022/04/29 19:20:33;;;;;;;8.68;3.08;;;;;;;;;;5071767;28;20037;-69
2022/04/29 19:23:37;;;;;;;4.78;2.85;;;;;;;;;;5070579;28;20048;-69
2022/04/29 19:26:42;;;;;;;5.70;3.05;;;;;;;;;;5070703;28;20477;-69
2022/04/29 19:29:46;;;;;;;5.35;3.03;;;;;;;;;;5070636;28;20401;-69
2022/04/29 19:32:51;;;;;;;5.25;2.65;;;;;;;;;;5071373;28;20036;-68
2022/04/29 19:35:55;;;;;;;5.13;3.13;;;;;;;;;;5071723;28;20036;-69